WetterOnline ( https://www.wetteronline.de )

Wetter aktuell Erzgebirge/West

Aktuelles Wetter: Carlsfeld (899m)

6-stündlich | Neueste Meldungen
Ortszeit Temperatur Wetter
Sa, 24.02. 19:00 1.2° C leicht bewölkt
Sa, 24.02. 13:00 2.0° C leicht bewölkt
Sa, 24.02. 7:00 -1.5° C fast wolkenlos
Sa, 24.02. 1:00 -0.9° C bedeckt
Fr, 23.02. 19:00 0.0° C wolkig
Fr, 23.02. 13:00 1.5° C bewölkt
Fr, 23.02. 7:00 0.6° C wolkig
Fr, 23.02. 1:00 5.6° C bewölkt
Ortszeit Temperatur Wetter
Sa, 24.02. 22:30 0.7° C bedeckt
Sa, 24.02. 22:20 0.7° C bedeckt
Sa, 24.02. 22:10 0.7° C bedeckt
Sa, 24.02. 22:00 0.7° C bedeckt
Sa, 24.02. 21:50 0.7° C bedeckt
Sa, 24.02. 21:40 0.6° C bedeckt
Sa, 24.02. 21:30 0.6° C bedeckt
Sa, 24.02. 21:00 0.4° C bedeckt
Sa, 24.02. 20:30 0.6° C bedeckt
Sa, 24.02. 20:00 0.6° C bedeckt
Sa, 24.02. 19:30 0.9° C leicht bewölkt
Ortszeit Relative Feuchte Sichtweite
Sa, 24.02. 19:00 82% 60 km
Sa, 24.02. 13:00 78% 45 km
Sa, 24.02. 7:00 91% >70 km
Sa, 24.02. 1:00 91% 55 km
Fr, 23.02. 19:00 89% 50 km
Fr, 23.02. 13:00 80% 55 km
Fr, 23.02. 7:00 87% >70 km
Fr, 23.02. 1:00 92% >70 km
Ortszeit Relative Feuchte Sichtweite
Sa, 24.02. 22:30 85% 65 km
Sa, 24.02. 22:20 85% -
Sa, 24.02. 22:10 85% -
Sa, 24.02. 22:00 85% 60 km
Sa, 24.02. 21:50 85% -
Sa, 24.02. 21:40 85% -
Sa, 24.02. 21:30 85% 60 km
Sa, 24.02. 21:00 85% 60 km
Sa, 24.02. 20:30 83% >70 km
Sa, 24.02. 20:00 84% 65 km
Sa, 24.02. 19:30 83% >70 km
Ortszeit Niederschlagsmenge Niederschlagsart
Sa, 24.02. 19:00 0.0 l/m2 in 12 Std. -
Sa, 24.02. 13:00 0.0 l/m2 in 6 Std. -
Sa, 24.02. 7:00 0.0 l/m2 in 12 Std. -
Sa, 24.02. 1:00 0.0 l/m2 in 6 Std. -
Fr, 23.02. 19:00 0.1 l/m2 in 12 Std. -
Fr, 23.02. 13:00 0.1 l/m2 in 6 Std. Schnee, Sprühregen
Fr, 23.02. 7:00 4 l/m2 in 12 Std. -
Fr, 23.02. 1:00 4 l/m2 in 6 Std. Regen
Ortszeit Niederschlagsmenge Niederschlagsart
Sa, 24.02. 22:30 0.0 l/m2 in 30 Min -
Sa, 24.02. 22:20 keine Meldung -
Sa, 24.02. 22:10 keine Meldung -
Sa, 24.02. 22:00 0.0 l/m2 in 1 Std. -
Sa, 24.02. 21:50 keine Meldung -
Sa, 24.02. 21:40 keine Meldung -
Sa, 24.02. 21:30 0.0 l/m2 in 30 Min -
Sa, 24.02. 21:00 0.0 l/m2 in 1 Std. -
Sa, 24.02. 20:30 0.0 l/m2 in 30 Min -
Sa, 24.02. 20:00 0.0 l/m2 in 1 Std. -
Sa, 24.02. 19:30 0.0 l/m2 in 30 Min -
Ortszeit Stärke Spitze Richtung
km/h Bft. km/h Grad Sektor
Sa, 24.02. 19:00 9 2 43 210° SW
Sa, 24.02. 13:00 13 3 35 240° SW
Sa, 24.02. 7:00 11 2 25 220° SW
Sa, 24.02. 1:00 11 2 29 230° SW
Fr, 23.02. 19:00 7 2 32 210° SW
Fr, 23.02. 13:00 17 3 37 240° SW
Fr, 23.02. 7:00 19 3 56 260° W
Fr, 23.02. 1:00 25 4 65 250° W
Ortszeit Stärke Spitze Richtung
km/h Bft. km/h Grad Sektor
Sa, 24.02. 22:30 11 2 22 230° SW
Sa, 24.02. 22:20 11 2 - 230° SW
Sa, 24.02. 22:10 11 2 - 220° SW
Sa, 24.02. 22:00 11 2 18 230° SW
Sa, 24.02. 21:50 11 2 - 230° SW
Sa, 24.02. 21:40 9 2 - 220° SW
Sa, 24.02. 21:30 9 2 19 220° SW
Sa, 24.02. 21:00 11 2 22 230° SW
Sa, 24.02. 20:30 11 2 22 210° SW
Sa, 24.02. 20:00 9 2 20 220° SW
Sa, 24.02. 19:30 11 2 22 210° SW
Ortszeit Untergrenze Bedeckung Gattung
total tief tief mittel hoch
Sa, 24.02. 19:00 990 m 2/8 1/8 - - -
Sa, 24.02. 13:00 390 m 4/8 4/8 - - -
Sa, 24.02. 7:00 1500 m 1/8 1/8 - - -
Sa, 24.02. 1:00 3900 m 8/8 8/8 - - -
Fr, 23.02. 19:00 270 m 8/8 3/8 - - -
Fr, 23.02. 13:00 390 m 8/8 5/8 - - -
Fr, 23.02. 7:00 540 m 6/8 2/8 - - -
Fr, 23.02. 1:00 240 m 7/8 7/8 - - -
Ortszeit Bedeckungsgrad in Achtel und Wolkenuntergrenze
Sa, 24.02. 22:30 8(4200m)
Sa, 24.02. 22:20 8(4200m)
Sa, 24.02. 22:10 8
Sa, 24.02. 22:00 8(4500m)
Sa, 24.02. 21:50 8(4500m)
Sa, 24.02. 21:40 8
Sa, 24.02. 21:30 1(3300m) 8(4800m) 8(7200m)
Sa, 24.02. 21:00 8(5100m)
Sa, 24.02. 20:30 8(5400m)
Sa, 24.02. 20:00 8(6000m)
Sa, 24.02. 19:30 2(5700m) 3(6600m)
Ortszeit Stationsdruck (hPa) Tendenz (hPa in 3 Std.)
Sa, 24.02. 19:00 903 + 1,9
Sa, 24.02. 13:00 901 + 2,3
Sa, 24.02. 7:00 897 + 0,9
Sa, 24.02. 1:00 896 - 0,1
Fr, 23.02. 19:00 896 + 0,2
Fr, 23.02. 13:00 896 + 0,7
Fr, 23.02. 7:00 893 + 2,3
Fr, 23.02. 1:00 889 - 0,3
Ortszeit Stationsdruck (hPa) Tendenz (hPa in 3 Std.)
Sa, 24.02. 22:30 904 + 0,3
Sa, 24.02. 22:20 904 keine Meldung
Sa, 24.02. 22:10 904 keine Meldung
Sa, 24.02. 22:00 904 + 0,3
Sa, 24.02. 21:50 904 keine Meldung
Sa, 24.02. 21:40 904 keine Meldung
Sa, 24.02. 21:30 904 + 0,6
Sa, 24.02. 21:00 904 + 0,8
Sa, 24.02. 20:30 904 + 1,0
Sa, 24.02. 20:00 903 + 1,1
Sa, 24.02. 19:30 903 + 1,6
Ortszeit Schneehöhe (cm)
Sa, 24.02. 19:00 0
Sa, 24.02. 13:00 0
Sa, 24.02. 7:00 0
Sa, 24.02. 1:00 0
Fr, 23.02. 19:00 0
Fr, 23.02. 13:00 0
Fr, 23.02. 7:00 0
Fr, 23.02. 1:00 0
Ortszeit Schneehöhe (cm)
Sa, 24.02. 22:30 0
Sa, 24.02. 22:20 0
Sa, 24.02. 22:10 -
Sa, 24.02. 22:00 0
Sa, 24.02. 21:50 0
Sa, 24.02. 21:40 -
Sa, 24.02. 21:30 0
Sa, 24.02. 21:00 0
Sa, 24.02. 20:30 0
Sa, 24.02. 20:00 0
Sa, 24.02. 19:30 0
Link zu dieser Seite / Seite empfehlen

Das Wetter in ...